sensor_id;sensor_type;location;lat;lon;timestamp;P1;durP1;ratioP1;P2;durP2;ratioP2
974;SDS011;6115;49.296;10.602;2023-03-21T00:01:48;7.27;;;5.23;;
974;SDS011;6115;49.296;10.602;2023-03-21T00:06:51;8.60;;;4.87;;
974;SDS011;6115;49.296;10.602;2023-03-21T00:11:52;5.63;;;4.53;;
974;SDS011;6115;49.296;10.602;2023-03-21T00:16:53;5.50;;;4.20;;
974;SDS011;6115;49.296;10.602;2023-03-21T00:21:53;7.27;;;4.27;;
974;SDS011;6115;49.296;10.602;2023-03-21T00:26:54;6.27;;;4.67;;
974;SDS011;6115;49.296;10.602;2023-03-21T00:31:55;4.97;;;4.27;;
974;SDS011;6115;49.296;10.602;2023-03-21T00:36:55;7.17;;;4.27;;
974;SDS011;6115;49.296;10.602;2023-03-21T00:41:56;11.13;;;4.10;;
974;SDS011;6115;49.296;10.602;2023-03-21T00:46:56;8.00;;;5.03;;
974;SDS011;6115;49.296;10.602;2023-03-21T00:52:02;5.60;;;3.70;;
974;SDS011;6115;49.296;10.602;2023-03-21T00:57:05;5.63;;;3.80;;
974;SDS011;6115;49.296;10.602;2023-03-21T01:02:06;5.43;;;4.40;;
974;SDS011;6115;49.296;10.602;2023-03-21T01:07:07;5.63;;;3.53;;
974;SDS011;6115;49.296;10.602;2023-03-21T01:12:07;7.03;;;3.50;;
974;SDS011;6115;49.296;10.602;2023-03-21T01:17:09;4.83;;;3.53;;
974;SDS011;6115;49.296;10.602;2023-03-21T01:22:10;5.37;;;3.53;;
974;SDS011;6115;49.296;10.602;2023-03-21T01:27:11;5.27;;;3.57;;
974;SDS011;6115;49.296;10.602;2023-03-21T01:32:11;7.10;;;4.20;;
974;SDS011;6115;49.296;10.602;2023-03-21T01:37:12;5.53;;;3.53;;
974;SDS011;6115;49.296;10.602;2023-03-21T01:42:13;4.00;;;3.13;;
974;SDS011;6115;49.296;10.602;2023-03-21T01:47:14;5.30;;;3.60;;
974;SDS011;6115;49.296;10.602;2023-03-21T01:52:21;6.23;;;3.70;;
974;SDS011;6115;49.296;10.602;2023-03-21T01:57:26;4.60;;;3.20;;
974;SDS011;6115;49.296;10.602;2023-03-21T02:02:32;6.83;;;4.10;;
974;SDS011;6115;49.296;10.602;2023-03-21T02:07:36;6.80;;;3.80;;
974;SDS011;6115;49.296;10.602;2023-03-21T02:12:40;5.00;;;3.83;;
974;SDS011;6115;49.296;10.602;2023-03-21T02:17:47;5.50;;;3.40;;
974;SDS011;6115;49.296;10.602;2023-03-21T02:39:13;5.30;;;3.77;;
974;SDS011;6115;49.296;10.602;2023-03-21T02:44:30;4.87;;;3.60;;
974;SDS011;6115;49.296;10.602;2023-03-21T02:49:48;5.70;;;3.83;;
974;SDS011;6115;49.296;10.602;2023-03-21T02:54:55;5.10;;;3.90;;
974;SDS011;6115;49.296;10.602;2023-03-21T02:59:58;6.67;;;4.23;;
974;SDS011;6115;49.296;10.602;2023-03-21T03:05:00;6.17;;;5.27;;
974;SDS011;6115;49.296;10.602;2023-03-21T03:10:12;9.63;;;6.33;;
974;SDS011;6115;49.296;10.602;2023-03-21T03:26:08;5.70;;;4.67;;
974;SDS011;6115;49.296;10.602;2023-03-21T03:31:22;6.90;;;4.87;;
974;SDS011;6115;49.296;10.602;2023-03-21T03:36:27;6.30;;;4.40;;
974;SDS011;6115;49.296;10.602;2023-03-21T03:41:44;6.20;;;4.17;;
974;SDS011;6115;49.296;10.602;2023-03-21T03:52:19;4.80;;;4.07;;
974;SDS011;6115;49.296;10.602;2023-03-21T03:57:24;7.37;;;5.43;;
974;SDS011;6115;49.296;10.602;2023-03-21T04:02:26;6.30;;;5.07;;
974;SDS011;6115;49.296;10.602;2023-03-21T04:07:26;10.13;;;5.50;;
974;SDS011;6115;49.296;10.602;2023-03-21T04:12:28;7.30;;;4.57;;
974;SDS011;6115;49.296;10.602;2023-03-21T04:17:28;5.63;;;4.60;;
974;SDS011;6115;49.296;10.602;2023-03-21T04:22:29;6.33;;;3.90;;
974;SDS011;6115;49.296;10.602;2023-03-21T04:27:30;5.80;;;3.57;;
974;SDS011;6115;49.296;10.602;2023-03-21T04:32:32;5.70;;;4.27;;
974;SDS011;6115;49.296;10.602;2023-03-21T04:37:38;6.33;;;3.80;;
974;SDS011;6115;49.296;10.602;2023-03-21T04:42:39;4.83;;;4.17;;
974;SDS011;6115;49.296;10.602;2023-03-21T04:47:39;6.20;;;5.30;;
974;SDS011;6115;49.296;10.602;2023-03-21T04:52:41;9.23;;;5.33;;
974;SDS011;6115;49.296;10.602;2023-03-21T04:57:41;9.87;;;5.63;;
974;SDS011;6115;49.296;10.602;2023-03-21T05:02:42;7.77;;;5.90;;
974;SDS011;6115;49.296;10.602;2023-03-21T05:07:43;9.20;;;6.30;;
974;SDS011;6115;49.296;10.602;2023-03-21T05:12:43;19.77;;;8.07;;
974;SDS011;6115;49.296;10.602;2023-03-21T05:17:46;6.60;;;5.43;;
974;SDS011;6115;49.296;10.602;2023-03-21T05:22:47;8.60;;;5.50;;
974;SDS011;6115;49.296;10.602;2023-03-21T05:27:49;6.67;;;5.27;;
974;SDS011;6115;49.296;10.602;2023-03-21T05:32:53;12.03;;;5.80;;
974;SDS011;6115;49.296;10.602;2023-03-21T05:37:53;9.90;;;8.33;;
974;SDS011;6115;49.296;10.602;2023-03-21T05:42:54;9.40;;;5.90;;
974;SDS011;6115;49.296;10.602;2023-03-21T05:47:55;7.53;;;4.77;;
974;SDS011;6115;49.296;10.602;2023-03-21T05:52:55;9.10;;;4.83;;
974;SDS011;6115;49.296;10.602;2023-03-21T05:57:56;6.17;;;4.57;;
974;SDS011;6115;49.296;10.602;2023-03-21T06:02:56;5.70;;;4.67;;
974;SDS011;6115;49.296;10.602;2023-03-21T06:07:57;8.73;;;5.37;;
974;SDS011;6115;49.296;10.602;2023-03-21T06:12:57;6.53;;;5.13;;
974;SDS011;6115;49.296;10.602;2023-03-21T06:17:58;12.20;;;6.70;;
974;SDS011;6115;49.296;10.602;2023-03-21T06:22:58;9.10;;;5.80;;
974;SDS011;6115;49.296;10.602;2023-03-21T06:27:59;10.20;;;5.57;;
974;SDS011;6115;49.296;10.602;2023-03-21T06:32:59;8.90;;;6.10;;
974;SDS011;6115;49.296;10.602;2023-03-21T06:38:00;11.57;;;7.33;;
974;SDS011;6115;49.296;10.602;2023-03-21T06:43:01;11.37;;;6.70;;
974;SDS011;6115;49.296;10.602;2023-03-21T06:48:01;8.30;;;6.30;;
974;SDS011;6115;49.296;10.602;2023-03-21T06:53:02;7.07;;;5.73;;
974;SDS011;6115;49.296;10.602;2023-03-21T06:58:02;11.83;;;5.90;;
974;SDS011;6115;49.296;10.602;2023-03-21T07:03:03;10.83;;;6.00;;
974;SDS011;6115;49.296;10.602;2023-03-21T07:08:04;10.63;;;6.63;;
974;SDS011;6115;49.296;10.602;2023-03-21T07:13:05;10.13;;;6.37;;
974;SDS011;6115;49.296;10.602;2023-03-21T07:18:07;7.50;;;5.20;;
974;SDS011;6115;49.296;10.602;2023-03-21T07:23:08;8.53;;;5.63;;
974;SDS011;6115;49.296;10.602;2023-03-21T07:28:09;8.93;;;5.53;;
974;SDS011;6115;49.296;10.602;2023-03-21T07:33:09;7.47;;;5.67;;
974;SDS011;6115;49.296;10.602;2023-03-21T07:38:12;10.03;;;6.03;;
974;SDS011;6115;49.296;10.602;2023-03-21T07:43:16;7.20;;;5.40;;
974;SDS011;6115;49.296;10.602;2023-03-21T07:48:16;6.20;;;4.80;;
974;SDS011;6115;49.296;10.602;2023-03-21T07:53:18;6.57;;;5.60;;
974;SDS011;6115;49.296;10.602;2023-03-21T07:58:19;6.97;;;5.27;;
974;SDS011;6115;49.296;10.602;2023-03-21T08:03:19;8.07;;;5.50;;
974;SDS011;6115;49.296;10.602;2023-03-21T08:08:20;6.07;;;4.47;;
974;SDS011;6115;49.296;10.602;2023-03-21T08:13:20;10.50;;;5.50;;
974;SDS011;6115;49.296;10.602;2023-03-21T08:18:21;6.60;;;5.00;;
974;SDS011;6115;49.296;10.602;2023-03-21T08:23:22;8.10;;;5.17;;
974;SDS011;6115;49.296;10.602;2023-03-21T08:28:23;5.50;;;4.90;;
974;SDS011;6115;49.296;10.602;2023-03-21T08:33:24;11.93;;;5.90;;
974;SDS011;6115;49.296;10.602;2023-03-21T08:38:25;7.53;;;5.60;;
974;SDS011;6115;49.296;10.602;2023-03-21T08:43:28;10.03;;;6.40;;
974;SDS011;6115;49.296;10.602;2023-03-21T08:48:29;7.63;;;5.07;;
974;SDS011;6115;49.296;10.602;2023-03-21T08:53:30;13.93;;;7.53;;
974;SDS011;6115;49.296;10.602;2023-03-21T08:58:31;6.83;;;5.87;;
974;SDS011;6115;49.296;10.602;2023-03-21T09:03:32;6.50;;;5.07;;
974;SDS011;6115;49.296;10.602;2023-03-21T09:08:32;8.80;;;6.50;;
974;SDS011;6115;49.296;10.602;2023-03-21T09:13:33;7.00;;;5.27;;
974;SDS011;6115;49.296;10.602;2023-03-21T09:18:33;7.60;;;5.60;;
974;SDS011;6115;49.296;10.602;2023-03-21T09:23:48;9.03;;;5.60;;
974;SDS011;6115;49.296;10.602;2023-03-21T09:28:51;6.43;;;4.73;;
974;SDS011;6115;49.296;10.602;2023-03-21T09:33:53;7.17;;;5.70;;
974;SDS011;6115;49.296;10.602;2023-03-21T09:38:54;6.33;;;5.50;;
974;SDS011;6115;49.296;10.602;2023-03-21T09:44:10;7.13;;;5.43;;
974;SDS011;6115;49.296;10.602;2023-03-21T09:49:24;8.93;;;5.20;;
974;SDS011;6115;49.296;10.602;2023-03-21T09:54:31;6.33;;;4.80;;
974;SDS011;6115;49.296;10.602;2023-03-21T09:59:38;6.80;;;4.40;;
974;SDS011;6115;49.296;10.602;2023-03-21T10:04:40;5.60;;;4.30;;
974;SDS011;6115;49.296;10.602;2023-03-21T10:09:43;5.77;;;4.30;;
974;SDS011;6115;49.296;10.602;2023-03-21T10:14:44;3.90;;;3.33;;
974;SDS011;6115;49.296;10.602;2023-03-21T10:19:50;3.50;;;3.20;;
974;SDS011;6115;49.296;10.602;2023-03-21T10:25:00;5.43;;;4.50;;
974;SDS011;6115;49.296;10.602;2023-03-21T10:30:00;5.10;;;3.70;;
974;SDS011;6115;49.296;10.602;2023-03-21T10:35:04;5.80;;;2.70;;
974;SDS011;6115;49.296;10.602;2023-03-21T10:40:06;5.03;;;2.67;;
974;SDS011;6115;49.296;10.602;2023-03-21T10:45:14;3.30;;;2.90;;
974;SDS011;6115;49.296;10.602;2023-03-21T10:50:18;3.10;;;2.80;;
974;SDS011;6115;49.296;10.602;2023-03-21T10:55:24;3.50;;;2.60;;
974;SDS011;6115;49.296;10.602;2023-03-21T11:00:34;3.40;;;2.90;;
974;SDS011;6115;49.296;10.602;2023-03-21T11:05:40;3.57;;;2.33;;
974;SDS011;6115;49.296;10.602;2023-03-21T11:15:54;2.97;;;2.40;;
974;SDS011;6115;49.296;10.602;2023-03-21T11:20:57;3.17;;;2.37;;
974;SDS011;6115;49.296;10.602;2023-03-21T11:26:02;3.83;;;2.57;;
974;SDS011;6115;49.296;10.602;2023-03-21T11:31:10;2.70;;;2.50;;
974;SDS011;6115;49.296;10.602;2023-03-21T11:41:32;5.00;;;2.27;;
974;SDS011;6115;49.296;10.602;2023-03-21T11:46:34;2.50;;;2.30;;
974;SDS011;6115;49.296;10.602;2023-03-21T11:51:40;2.77;;;2.50;;
974;SDS011;6115;49.296;10.602;2023-03-21T11:56:50;4.33;;;2.00;;
974;SDS011;6115;49.296;10.602;2023-03-21T12:07:20;6.87;;;1.87;;
974;SDS011;6115;49.296;10.602;2023-03-21T12:12:34;2.73;;;2.50;;
974;SDS011;6115;49.296;10.602;2023-03-21T12:18:19;2.20;;;1.87;;
974;SDS011;6115;49.296;10.602;2023-03-21T12:23:41;4.80;;;2.43;;
974;SDS011;6115;49.296;10.602;2023-03-21T12:28:59;4.43;;;2.30;;
974;SDS011;6115;49.296;10.602;2023-03-21T12:39:38;3.13;;;2.13;;
974;SDS011;6115;49.296;10.602;2023-03-21T12:44:40;3.80;;;2.27;;
974;SDS011;6115;49.296;10.602;2023-03-21T12:55:05;4.90;;;2.10;;
974;SDS011;6115;49.296;10.602;2023-03-21T13:10:27;2.90;;;2.13;;
974;SDS011;6115;49.296;10.602;2023-03-21T13:15:37;2.10;;;1.57;;
974;SDS011;6115;49.296;10.602;2023-03-21T13:20:57;3.00;;;1.60;;
974;SDS011;6115;49.296;10.602;2023-03-21T13:26:00;3.33;;;1.90;;
974;SDS011;6115;49.296;10.602;2023-03-21T13:36:27;2.83;;;2.43;;
974;SDS011;6115;49.296;10.602;2023-03-21T13:41:34;3.47;;;2.10;;
974;SDS011;6115;49.296;10.602;2023-03-21T13:46:45;2.30;;;2.10;;
974;SDS011;6115;49.296;10.602;2023-03-21T13:51:59;4.37;;;1.50;;
974;SDS011;6115;49.296;10.602;2023-03-21T13:57:05;1.67;;;1.57;;
974;SDS011;6115;49.296;10.602;2023-03-21T14:07:29;5.30;;;2.13;;
974;SDS011;6115;49.296;10.602;2023-03-21T14:12:41;3.07;;;1.60;;
974;SDS011;6115;49.296;10.602;2023-03-21T14:22:53;1.70;;;1.60;;
974;SDS011;6115;49.296;10.602;2023-03-21T14:27:54;1.70;;;1.50;;
974;SDS011;6115;49.296;10.602;2023-03-21T14:33:02;2.53;;;1.67;;
974;SDS011;6115;49.296;10.602;2023-03-21T14:38:19;2.10;;;1.67;;
974;SDS011;6115;49.296;10.602;2023-03-21T14:43:22;2.13;;;1.93;;
974;SDS011;6115;49.296;10.602;2023-03-21T14:48:30;3.20;;;2.13;;
974;SDS011;6115;49.296;10.602;2023-03-21T14:53:36;2.80;;;1.97;;
974;SDS011;6115;49.296;10.602;2023-03-21T14:58:39;2.93;;;2.13;;
974;SDS011;6115;49.296;10.602;2023-03-21T15:03:43;2.70;;;2.20;;
974;SDS011;6115;49.296;10.602;2023-03-21T15:08:55;2.23;;;1.90;;
974;SDS011;6115;49.296;10.602;2023-03-21T15:14:04;4.33;;;2.30;;
974;SDS011;6115;49.296;10.602;2023-03-21T15:19:06;3.23;;;2.03;;
974;SDS011;6115;49.296;10.602;2023-03-21T15:24:21;2.67;;;1.80;;
974;SDS011;6115;49.296;10.602;2023-03-21T15:29:29;2.70;;;2.43;;
974;SDS011;6115;49.296;10.602;2023-03-21T15:34:31;3.73;;;2.70;;
974;SDS011;6115;49.296;10.602;2023-03-21T15:39:33;2.97;;;2.67;;
974;SDS011;6115;49.296;10.602;2023-03-21T15:44:35;4.27;;;2.77;;
974;SDS011;6115;49.296;10.602;2023-03-21T15:49:38;5.00;;;2.83;;
974;SDS011;6115;49.296;10.602;2023-03-21T15:54:41;4.57;;;3.30;;
974;SDS011;6115;49.296;10.602;2023-03-21T15:59:46;8.63;;;7.00;;
974;SDS011;6115;49.296;10.602;2023-03-21T16:05:21;5.10;;;3.33;;
974;SDS011;6115;49.296;10.602;2023-03-21T16:10:25;3.40;;;2.53;;
974;SDS011;6115;49.296;10.602;2023-03-21T16:15:27;3.67;;;2.60;;
974;SDS011;6115;49.296;10.602;2023-03-21T16:20:30;3.63;;;2.50;;
974;SDS011;6115;49.296;10.602;2023-03-21T16:25:33;4.17;;;3.00;;
974;SDS011;6115;49.296;10.602;2023-03-21T16:30:34;3.50;;;2.77;;
974;SDS011;6115;49.296;10.602;2023-03-21T16:35:34;3.77;;;2.50;;
974;SDS011;6115;49.296;10.602;2023-03-21T16:40:36;4.00;;;3.60;;
974;SDS011;6115;49.296;10.602;2023-03-21T16:45:38;6.90;;;4.30;;
974;SDS011;6115;49.296;10.602;2023-03-21T16:50:39;6.23;;;4.80;;
974;SDS011;6115;49.296;10.602;2023-03-21T16:55:41;4.83;;;3.97;;
974;SDS011;6115;49.296;10.602;2023-03-21T17:00:41;6.57;;;4.73;;
974;SDS011;6115;49.296;10.602;2023-03-21T17:05:42;7.17;;;4.40;;
974;SDS011;6115;49.296;10.602;2023-03-21T17:10:43;7.60;;;6.70;;
974;SDS011;6115;49.296;10.602;2023-03-21T17:15:44;11.50;;;8.70;;
974;SDS011;6115;49.296;10.602;2023-03-21T17:20:44;10.13;;;8.37;;
974;SDS011;6115;49.296;10.602;2023-03-21T17:25:45;7.20;;;6.50;;
974;SDS011;6115;49.296;10.602;2023-03-21T17:30:46;11.47;;;7.63;;
974;SDS011;6115;49.296;10.602;2023-03-21T17:35:46;8.80;;;6.73;;
974;SDS011;6115;49.296;10.602;2023-03-21T17:40:47;8.07;;;6.23;;
974;SDS011;6115;49.296;10.602;2023-03-21T17:45:47;9.60;;;8.03;;
974;SDS011;6115;49.296;10.602;2023-03-21T17:50:48;11.30;;;7.53;;
974;SDS011;6115;49.296;10.602;2023-03-21T17:55:48;15.67;;;11.90;;
974;SDS011;6115;49.296;10.602;2023-03-21T18:00:49;9.37;;;7.80;;
974;SDS011;6115;49.296;10.602;2023-03-21T18:05:50;8.87;;;5.57;;
974;SDS011;6115;49.296;10.602;2023-03-21T18:10:50;9.17;;;5.30;;
974;SDS011;6115;49.296;10.602;2023-03-21T18:15:52;13.20;;;8.70;;
974;SDS011;6115;49.296;10.602;2023-03-21T18:20:53;10.43;;;6.13;;
974;SDS011;6115;49.296;10.602;2023-03-21T18:25:53;7.97;;;5.23;;
974;SDS011;6115;49.296;10.602;2023-03-21T18:30:54;10.20;;;5.50;;
974;SDS011;6115;49.296;10.602;2023-03-21T18:35:54;12.67;;;5.57;;
974;SDS011;6115;49.296;10.602;2023-03-21T18:40:55;7.40;;;5.63;;
974;SDS011;6115;49.296;10.602;2023-03-21T18:45:55;14.67;;;8.63;;
974;SDS011;6115;49.296;10.602;2023-03-21T18:50:56;18.83;;;9.70;;
974;SDS011;6115;49.296;10.602;2023-03-21T18:55:57;13.87;;;9.47;;
974;SDS011;6115;49.296;10.602;2023-03-21T19:00:57;8.67;;;6.40;;
974;SDS011;6115;49.296;10.602;2023-03-21T19:05:58;8.93;;;6.90;;
974;SDS011;6115;49.296;10.602;2023-03-21T19:10:59;12.67;;;5.73;;
974;SDS011;6115;49.296;10.602;2023-03-21T19:16:00;8.80;;;5.27;;
974;SDS011;6115;49.296;10.602;2023-03-21T19:21:03;10.70;;;5.70;;
974;SDS011;6115;49.296;10.602;2023-03-21T19:26:04;5.53;;;4.17;;
974;SDS011;6115;49.296;10.602;2023-03-21T19:31:05;8.17;;;5.07;;
974;SDS011;6115;49.296;10.602;2023-03-21T19:36:07;8.40;;;5.10;;
974;SDS011;6115;49.296;10.602;2023-03-21T19:41:08;12.17;;;6.57;;
974;SDS011;6115;49.296;10.602;2023-03-21T19:46:09;9.30;;;5.37;;
974;SDS011;6115;49.296;10.602;2023-03-21T19:51:13;8.63;;;6.73;;
974;SDS011;6115;49.296;10.602;2023-03-21T19:56:14;32.27;;;20.40;;
974;SDS011;6115;49.296;10.602;2023-03-21T20:01:15;24.20;;;14.30;;
974;SDS011;6115;49.296;10.602;2023-03-21T20:06:16;14.93;;;9.43;;
974;SDS011;6115;49.296;10.602;2023-03-21T20:11:17;14.27;;;8.10;;
974;SDS011;6115;49.296;10.602;2023-03-21T20:16:18;12.67;;;9.90;;
974;SDS011;6115;49.296;10.602;2023-03-21T20:21:19;14.10;;;11.27;;
974;SDS011;6115;49.296;10.602;2023-03-21T20:26:20;16.40;;;11.27;;
974;SDS011;6115;49.296;10.602;2023-03-21T20:31:21;12.40;;;10.67;;
974;SDS011;6115;49.296;10.602;2023-03-21T20:36:23;16.00;;;8.80;;
974;SDS011;6115;49.296;10.602;2023-03-21T20:41:23;8.30;;;7.17;;
974;SDS011;6115;49.296;10.602;2023-03-21T20:46:24;11.53;;;7.60;;
974;SDS011;6115;49.296;10.602;2023-03-21T20:51:25;13.30;;;8.70;;
974;SDS011;6115;49.296;10.602;2023-03-21T20:56:25;9.63;;;8.63;;
974;SDS011;6115;49.296;10.602;2023-03-21T21:01:26;11.33;;;8.57;;
974;SDS011;6115;49.296;10.602;2023-03-21T21:06:27;12.57;;;8.50;;
974;SDS011;6115;49.296;10.602;2023-03-21T21:11:28;13.40;;;8.63;;
974;SDS011;6115;49.296;10.602;2023-03-21T21:16:29;9.47;;;7.83;;
974;SDS011;6115;49.296;10.602;2023-03-21T21:21:29;10.97;;;8.30;;
974;SDS011;6115;49.296;10.602;2023-03-21T21:26:32;12.80;;;7.43;;
974;SDS011;6115;49.296;10.602;2023-03-21T21:31:32;11.30;;;8.47;;
974;SDS011;6115;49.296;10.602;2023-03-21T21:36:33;21.17;;;13.50;;
974;SDS011;6115;49.296;10.602;2023-03-21T21:41:34;16.63;;;11.33;;
974;SDS011;6115;49.296;10.602;2023-03-21T21:46:34;12.37;;;9.53;;
974;SDS011;6115;49.296;10.602;2023-03-21T21:51:35;15.93;;;11.17;;
974;SDS011;6115;49.296;10.602;2023-03-21T21:56:35;18.77;;;11.93;;
974;SDS011;6115;49.296;10.602;2023-03-21T22:01:36;10.73;;;8.87;;
974;SDS011;6115;49.296;10.602;2023-03-21T22:06:37;11.30;;;7.80;;
974;SDS011;6115;49.296;10.602;2023-03-21T22:11:38;11.03;;;8.83;;
974;SDS011;6115;49.296;10.602;2023-03-21T22:16:38;9.83;;;7.70;;
974;SDS011;6115;49.296;10.602;2023-03-21T22:21:39;11.47;;;7.53;;
974;SDS011;6115;49.296;10.602;2023-03-21T22:26:40;16.80;;;9.83;;
974;SDS011;6115;49.296;10.602;2023-03-21T22:31:40;11.93;;;8.87;;
974;SDS011;6115;49.296;10.602;2023-03-21T22:36:41;11.23;;;8.23;;
974;SDS011;6115;49.296;10.602;2023-03-21T22:41:45;9.13;;;8.20;;
974;SDS011;6115;49.296;10.602;2023-03-21T22:46:46;12.87;;;8.40;;
974;SDS011;6115;49.296;10.602;2023-03-21T22:51:47;13.97;;;8.90;;
974;SDS011;6115;49.296;10.602;2023-03-21T22:56:47;13.47;;;9.10;;
974;SDS011;6115;49.296;10.602;2023-03-21T23:01:48;12.10;;;8.80;;
974;SDS011;6115;49.296;10.602;2023-03-21T23:06:48;10.27;;;8.40;;
974;SDS011;6115;49.296;10.602;2023-03-21T23:11:49;11.47;;;8.67;;
974;SDS011;6115;49.296;10.602;2023-03-21T23:16:50;11.57;;;8.63;;
974;SDS011;6115;49.296;10.602;2023-03-21T23:21:59;10.00;;;8.50;;
974;SDS011;6115;49.296;10.602;2023-03-21T23:27:00;13.40;;;9.27;;
974;SDS011;6115;49.296;10.602;2023-03-21T23:32:01;11.07;;;8.67;;
974;SDS011;6115;49.296;10.602;2023-03-21T23:37:01;17.57;;;10.00;;
974;SDS011;6115;49.296;10.602;2023-03-21T23:42:02;17.60;;;9.90;;
974;SDS011;6115;49.296;10.602;2023-03-21T23:47:02;18.27;;;9.07;;
974;SDS011;6115;49.296;10.602;2023-03-21T23:52:03;11.37;;;9.33;;
974;SDS011;6115;49.296;10.602;2023-03-21T23:57:04;13.30;;;9.43;;
